Nearby METAR Reports

 

K1A5 - Macon/Franklin, North Carolina, USA
Distance from station: WSW 16mi, 25km
Updated: Mon, 29-May-2017 3:15am EDT
Mist, Overcast
Mist, Overcast
 Wind from calm
Wind: Calm
Temperature: 57°F , 14°C
Dew Point: 55°F , 13°C
Humidity: 94%
Barometer: 29.99 inHg , 1015.6 hPa
Summary: Mist
Clouds: Overcast
Visibility: 2 miles , 3 km
Cloud details: Partly cloudy 200 ft
Mostly cloudy 3700 ft
Overcast 5000 ft
2017/05/29 07:15 K1A5 290715Z AUTO 00000KT 2SM BR SCT002 BKN037 OVC050 14/13 A2999 RMK AO2 T01370130
KAVL - Asheville, North Carolina, USA
Distance from station: ENE 36mi, 59km
Updated: Mon, 29-May-2017 2:54am EDT
Few Clouds
Few Clouds
 Wind from S
Wind: S 6 mph , 9 km/h
Temperature: 57°F , 14°C
Dew Point: 55°F , 13°C
Humidity: 94%
Barometer: 29.99 inHg , 1015.6 hPa
Clouds: Few Clouds
Visibility: 8 miles , 13 km
Cloud details: Few Clouds 200 ft
2017/05/29 06:54 KAVL 290654Z AUTO 17005KT 8SM FEW002 14/13 A2999 RMK AO2 SLP131 T01440133
 
KRHP - Andrews, North Carolina, USA
Distance from station: WSW 40mi, 64km
Updated: Tue, 23-May-2017 9:40pm EDT
NOT Current
Heavy rain, Overcast
Heavy rain, Overcast
 Wind from calm
Wind: Calm
Temperature: 64°F , 18°C
Dew Point: 64°F , 18°C
Humidity: 100%
Barometer: 29.71 inHg , 1006.1 hPa
Summary: Heavy rain
Clouds: Overcast
Visibility: 4 miles , 6 km
Cloud details: Partly cloudy 300 ft
Mostly cloudy 1200 ft
Overcast 2500 ft
2017/05/24 01:40 KRHP 240140Z AUTO 00000KT 4SM +RA SCT003 BKN012 OVC025 18/18 A2971 RMK AO2 P0012 T01800180
KLQK - Pickens, South Carolina, USA
Distance from station: SE 42mi, 68km
Updated: Sun, 21-May-2017 4:55am EDT
NOT Current
Heavy thunderstorm, Rain, Overcast
Heavy thunderstorm, Rain, Overcast
 Wind from W
Wind: W 9 mph , 15 km/h
Temperature: 66°F , 19°C
Dew Point: 66°F , 19°C
Humidity: 100%
Barometer: 30.16 inHg , 1021.3 hPa
Summary: Heavy thunderstorm, Rain
Clouds: Overcast
Visibility: 1 1/4 miles , 2 km
Cloud details: Partly cloudy 500 ft
Mostly cloudy 1000 ft
Overcast 2100 ft
2017/05/21 08:55 KLQK 210855Z AUTO 28008KT 1 1/4SM +TSRA SCT005 BKN010 OVC021 19/19 A3016 RMK AO2 LTG DSNT ALQS T01910190
 
KCEU - Clemson, South Carolina, USA
Distance from station: SSE 46mi, 75km
Updated: Mon, 29-May-2017 2:54am EDT
Clear
Clear
 Wind from WNW
Wind: WNW 5 mph , 7 km/h
Temperature: 68°F , 20°C
Dew Point: 63°F , 17°C
Humidity: 83%
Barometer: 29.95 inHg , 1014.2 hPa
Clouds: Clear
Visibility: 10 miles , 16 km
2017/05/29 06:54 KCEU 290654Z AUTO 29004KT 10SM CLR 20/17 A2995 RMK AO2 SLP132 T02000172
KTOC - Toccoa, Georgia, USA
Distance from station: S 49mi, 79km
Updated: Mon, 29-May-2017 2:55am EDT
Mostly cloudy
Mostly cloudy
 Wind from W
Wind: W 5 mph , 7 km/h
Temperature: 72°F , 22°C
Dew Point: 66°F , 19°C
Humidity: 83%
Barometer: 29.96 inHg , 1014.6 hPa
Clouds: Mostly cloudy
Visibility: 10 miles , 16 km
Cloud details: Mostly cloudy 5000 ft
2017/05/29 06:55 KTOC 290655Z AUTO 27004KT 10SM BKN050 22/19 A2996 RMK AO2